createdAt,value
2022-12-15T00:00:34.719Z,26.47
2022-12-15T00:05:54.637Z,26.97
2022-12-15T00:08:41.450Z,25.13
2022-12-15T00:11:27.255Z,24.27
2022-12-15T00:14:15.080Z,24.80
2022-12-15T00:17:01.093Z,26.60
2022-12-15T00:19:47.208Z,25.63
2022-12-15T00:22:34.880Z,26.60
2022-12-15T00:25:20.897Z,25.20
2022-12-15T00:28:06.929Z,24.50
2022-12-15T00:31:00.426Z,24.70
2022-12-15T00:33:48.618Z,24.50
2022-12-15T00:36:34.789Z,23.57
2022-12-15T00:39:07.081Z,25.47
2022-12-15T00:41:35.762Z,26.33
2022-12-15T00:44:04.368Z,24.53
2022-12-15T00:46:50.460Z,27.07
2022-12-15T00:49:36.241Z,31.07
2022-12-15T00:52:22.205Z,30.27
2022-12-15T00:58:13.603Z,27.50
2022-12-15T01:00:59.469Z,27.07
2022-12-15T01:03:45.226Z,27.20
2022-12-15T01:06:32.567Z,26.07
2022-12-15T01:09:23.300Z,27.63
2022-12-15T01:12:10.328Z,30.67
2022-12-15T01:14:56.419Z,31.83
2022-12-15T01:17:42.219Z,31.40
2022-12-15T01:20:18.589Z,31.00
2022-12-15T01:22:49.068Z,30.90
2022-12-15T01:25:19.580Z,29.13
2022-12-15T01:27:51.698Z,32.03
2022-12-15T01:30:23.389Z,30.57
2022-12-15T01:32:52.200Z,28.60
2022-12-15T01:35:21.869Z,28.10
2022-12-15T01:37:50.628Z,30.70
2022-12-15T01:40:40.044Z,29.63
2022-12-15T01:43:15.623Z,26.80
2022-12-15T01:45:51.781Z,26.43
2022-12-15T01:48:28.034Z,26.00
2022-12-15T01:51:03.372Z,25.20
2022-12-15T01:53:37.917Z,26.37
2022-12-15T01:56:11.049Z,25.83
2022-12-15T01:58:45.942Z,24.47
2022-12-15T02:01:14.662Z,25.57
2022-12-15T02:03:45.456Z,25.73
2022-12-15T02:06:14.718Z,27.30
2022-12-15T02:08:48.518Z,27.20
2022-12-15T02:11:48.992Z,26.07
2022-12-15T02:14:29.757Z,24.17
2022-12-15T02:17:14.189Z,25.00
2022-12-15T02:20:27.582Z,24.73
2022-12-15T02:23:32.459Z,24.20
2022-12-15T02:26:37.287Z,26.23
2022-12-15T02:29:17.502Z,25.73
2022-12-15T02:31:54.205Z,25.23
2022-12-15T02:34:30.427Z,25.17
2022-12-15T02:37:03.250Z,24.90
2022-12-15T02:39:37.907Z,23.47
2022-12-15T02:42:07.561Z,26.40
2022-12-15T02:44:39.769Z,28.57
2022-12-15T02:47:24.054Z,25.37
2022-12-15T02:50:23.451Z,25.43
2022-12-15T02:53:02.006Z,26.00
2022-12-15T02:55:38.933Z,25.13
2022-12-15T02:58:15.168Z,24.48
2022-12-15T03:00:49.096Z,25.23
2022-12-15T03:03:21.965Z,26.25
2022-12-15T03:05:53.488Z,25.38
2022-12-15T03:08:23.718Z,25.50
2022-12-15T03:10:54.469Z,24.80
2022-12-15T03:13:23.151Z,25.60
2022-12-15T03:15:52.673Z,25.33
2022-12-15T03:18:22.673Z,24.63
2022-12-15T03:20:51.329Z,23.83
2022-12-15T03:23:20.022Z,23.67
2022-12-15T03:25:50.681Z,22.83
2022-12-15T03:28:19.390Z,21.63
2022-12-15T03:30:50.857Z,22.03
2022-12-15T03:33:21.882Z,24.00
2022-12-15T03:35:51.640Z,22.30
2022-12-15T03:38:21.216Z,21.83
2022-12-15T03:40:49.776Z,25.57
2022-12-15T03:43:19.342Z,28.27
2022-12-15T03:45:48.082Z,24.77
2022-12-15T03:48:18.295Z,24.70
2022-12-15T03:50:50.440Z,22.53
2022-12-15T03:53:19.069Z,23.63
2022-12-15T03:55:47.701Z,23.03
2022-12-15T03:58:16.429Z,26.27
2022-12-15T04:00:48.268Z,24.43
2022-12-15T04:03:16.920Z,23.40
2022-12-15T04:05:45.588Z,23.53
2022-12-15T04:08:15.639Z,24.10
2022-12-15T04:10:44.608Z,22.33
2022-12-15T04:13:16.808Z,22.73
2022-12-15T04:15:45.507Z,25.33
2022-12-15T04:18:14.257Z,24.20
2022-12-15T04:20:42.968Z,23.60
2022-12-15T04:23:12.000Z,22.10
2022-12-15T04:25:59.536Z,25.40
2022-12-15T04:28:45.648Z,25.67
2022-12-15T04:31:33.679Z,23.60
2022-12-15T04:34:23.494Z,22.33
2022-12-15T04:37:12.324Z,23.13
2022-12-15T04:40:01.346Z,21.63
2022-12-15T04:42:50.741Z,23.43
2022-12-15T04:45:40.090Z,22.77
2022-12-15T04:48:26.448Z,22.17
2022-12-15T04:51:13.149Z,22.47
2022-12-15T04:54:02.437Z,23.30
2022-12-15T04:56:49.857Z,23.35
2022-12-15T04:59:38.675Z,21.75
2022-12-15T05:02:24.675Z,22.38
2022-12-15T05:05:10.272Z,22.07
2022-12-15T05:07:56.195Z,20.38
2022-12-15T05:10:41.789Z,21.80
2022-12-15T05:13:27.997Z,21.67
2022-12-15T05:16:14.909Z,21.75
2022-12-15T05:19:00.312Z,24.65
2022-12-15T05:21:46.789Z,24.40
2022-12-15T05:24:32.207Z,24.92
2022-12-15T05:27:17.872Z,23.77
2022-12-15T05:30:03.282Z,19.63
2022-12-15T05:32:34.423Z,21.05
2022-12-15T05:35:02.552Z,22.55
2022-12-15T05:37:30.823Z,22.37
2022-12-15T05:39:59.086Z,24.83
2022-12-15T05:42:27.219Z,25.60
2022-12-15T05:44:55.427Z,23.80
2022-12-15T05:47:23.623Z,23.27
2022-12-15T05:49:53.212Z,24.33
2022-12-15T05:52:21.434Z,23.13
2022-12-15T05:54:49.704Z,25.30
2022-12-15T05:57:17.887Z,23.30
2022-12-15T05:59:46.071Z,24.57
2022-12-15T06:02:14.344Z,23.70
2022-12-15T06:04:42.744Z,23.60
2022-12-15T06:07:12.639Z,24.98
2022-12-15T06:09:40.953Z,22.25
2022-12-15T06:12:11.097Z,23.20
2022-12-15T06:14:39.444Z,21.70
2022-12-15T06:17:09.762Z,21.03
2022-12-15T06:19:43.892Z,22.67
2022-12-15T06:22:14.525Z,22.77
2022-12-15T06:24:42.726Z,20.45
2022-12-15T06:27:10.923Z,21.70
2022-12-15T06:29:39.136Z,20.85
2022-12-15T06:32:07.997Z,21.55
2022-12-15T06:34:37.087Z,22.02
2022-12-15T06:37:05.314Z,23.08
2022-12-15T06:39:34.855Z,22.75
2022-12-15T06:42:03.183Z,23.85
2022-12-15T06:44:31.388Z,23.65
2022-12-15T06:47:00.019Z,22.88
2022-12-15T06:49:28.279Z,23.25
2022-12-15T06:51:58.451Z,24.65
2022-12-15T06:54:26.939Z,24.02
2022-12-15T06:56:56.564Z,22.35
2022-12-15T06:59:25.900Z,23.30
2022-12-15T07:01:54.278Z,26.40
2022-12-15T07:04:22.628Z,24.13
2022-12-15T07:06:51.042Z,23.42
2022-12-15T07:09:20.334Z,22.77
2022-12-15T07:11:50.349Z,22.17
2022-12-15T07:14:20.020Z,22.40
2022-12-15T07:16:48.391Z,21.85
2022-12-15T07:19:16.680Z,22.33
2022-12-15T07:21:45.260Z,20.60
2022-12-15T07:24:14.936Z,22.15
2022-12-15T07:26:43.246Z,21.90
2022-12-15T07:29:12.298Z,20.55
2022-12-15T07:31:42.037Z,20.65
2022-12-15T07:34:10.236Z,21.20
2022-12-15T07:36:38.638Z,20.45
2022-12-15T07:39:10.466Z,21.90
2022-12-15T07:41:40.474Z,21.00
2022-12-15T07:44:08.947Z,22.10
2022-12-15T07:46:37.533Z,21.58
2022-12-15T07:49:10.402Z,21.40
2022-12-15T07:51:40.874Z,21.08
2022-12-15T07:54:11.419Z,21.23
2022-12-15T07:56:39.880Z,22.05
2022-12-15T07:59:10.016Z,19.65
2022-12-15T08:01:39.746Z,21.48
2022-12-15T08:04:12.477Z,21.08
2022-12-15T08:06:40.856Z,19.83
2022-12-15T08:09:09.333Z,18.65
2022-12-15T08:11:37.780Z,20.07
2022-12-15T08:14:10.404Z,22.55
2022-12-15T08:16:41.730Z,20.87
2022-12-15T08:19:13.837Z,20.57
2022-12-15T08:21:43.637Z,22.75
2022-12-15T08:24:13.824Z,22.53
2022-12-15T08:26:44.801Z,22.42
2022-12-15T08:29:49.646Z,20.80
2022-12-15T08:32:08.195Z,21.80
2022-12-15T08:34:39.145Z,21.73
2022-12-15T08:37:07.344Z,23.60
2022-12-15T08:39:35.666Z,21.63
2022-12-15T08:42:03.956Z,21.73
2022-12-15T08:44:32.335Z,22.83
2022-12-15T08:47:00.714Z,22.13
2022-12-15T08:49:29.055Z,22.27
2022-12-15T08:51:59.756Z,22.63
2022-12-15T08:54:28.085Z,23.05
2022-12-15T08:56:56.379Z,22.83
2022-12-15T08:59:25.347Z,21.52
2022-12-15T09:01:55.118Z,21.67
2022-12-15T09:04:24.873Z,20.83
2022-12-15T09:06:53.637Z,22.47
2022-12-15T09:09:23.625Z,22.37
2022-12-15T09:11:52.916Z,22.27
2022-12-15T09:14:28.610Z,21.97
2022-12-15T09:16:57.820Z,23.20
2022-12-15T09:19:26.527Z,22.07
2022-12-15T09:21:55.980Z,23.03
2022-12-15T09:24:34.287Z,21.80
2022-12-15T09:27:04.859Z,23.20
2022-12-15T09:29:33.872Z,22.60
2022-12-15T09:32:05.537Z,21.40
2022-12-15T09:34:38.531Z,20.83
2022-12-15T09:37:07.083Z,21.40
2022-12-15T09:39:37.861Z,20.60
2022-12-15T09:42:07.741Z,23.47
2022-12-15T09:44:38.762Z,21.47
2022-12-15T09:47:15.933Z,22.10
2022-12-15T09:49:54.833Z,21.17
2022-12-15T09:52:29.126Z,39.90
2022-12-15T09:55:01.733Z,32.23
2022-12-15T09:57:39.807Z,21.90
2022-12-15T10:00:17.710Z,23.20
2022-12-15T10:03:34.287Z,22.00
2022-12-15T10:06:21.075Z,22.20
2022-12-15T10:08:54.700Z,20.50
2022-12-15T10:11:50.314Z,21.70
2022-12-15T10:14:34.064Z,22.40
2022-12-15T10:17:12.992Z,22.30
2022-12-15T10:19:46.688Z,21.90
2022-12-15T10:22:23.879Z,21.40
2022-12-15T10:25:10.221Z,20.83
2022-12-15T10:27:58.952Z,21.60
2022-12-15T10:30:27.813Z,22.63
2022-12-15T10:33:02.592Z,22.57
2022-12-15T10:35:34.179Z,21.70
2022-12-15T10:38:04.803Z,21.20
2022-12-15T10:40:50.160Z,21.53
2022-12-15T10:43:30.654Z,21.23
2022-12-15T10:46:12.042Z,19.83
2022-12-15T10:48:40.689Z,20.13
2022-12-15T10:56:48.643Z,21.20
2022-12-15T10:59:29.657Z,21.80
2022-12-15T11:02:26.992Z,20.50
2022-12-15T11:04:59.734Z,21.37
2022-12-15T11:07:34.921Z,18.33
2022-12-15T11:10:15.850Z,18.90
2022-12-15T11:12:58.352Z,17.87
2022-12-15T11:15:50.772Z,20.33
2022-12-15T11:18:28.529Z,21.93
2022-12-15T11:21:03.261Z,20.23
2022-12-15T11:23:51.454Z,18.77
2022-12-15T11:26:31.958Z,21.80
2022-12-15T11:29:03.898Z,18.80
2022-12-15T11:31:39.235Z,19.17
2022-12-15T11:34:14.334Z,20.97
2022-12-15T11:37:10.550Z,19.97
2022-12-15T11:39:56.480Z,19.80
2022-12-15T11:42:39.484Z,18.70
2022-12-15T11:45:18.174Z,18.37
2022-12-15T11:47:51.214Z,19.70
2022-12-15T11:50:30.724Z,18.73
2022-12-15T11:53:12.635Z,18.17
2022-12-15T11:55:48.320Z,18.57
2022-12-15T11:58:48.697Z,19.10
2022-12-15T12:01:34.053Z,18.93
2022-12-15T12:04:15.553Z,18.33
2022-12-15T12:06:54.537Z,18.47
2022-12-15T12:09:31.496Z,16.73
2022-12-15T12:12:13.212Z,15.43
2022-12-15T12:14:55.998Z,15.03
2022-12-15T12:17:35.138Z,19.43
2022-12-15T12:20:16.628Z,16.30
2022-12-15T12:22:54.814Z,16.37
2022-12-15T12:25:26.155Z,16.40
2022-12-15T12:27:58.855Z,16.57
2022-12-15T12:30:31.244Z,15.20
2022-12-15T12:33:05.135Z,18.33
2022-12-15T12:35:40.106Z,18.17
2022-12-15T12:38:11.559Z,18.37
2022-12-15T12:40:56.560Z,17.43
2022-12-15T12:43:34.104Z,18.27
2022-12-15T12:46:10.175Z,18.87
2022-12-15T12:48:43.083Z,19.87
2022-12-15T12:51:25.396Z,20.03
2022-12-15T12:53:54.608Z,17.17
2022-12-15T12:56:40.453Z,20.83
2022-12-15T12:59:38.177Z,21.60
2022-12-15T13:02:55.158Z,19.50
2022-12-15T13:05:32.676Z,19.40
2022-12-15T13:11:55.524Z,21.50
2022-12-15T13:14:46.594Z,20.40
2022-12-15T13:17:27.164Z,20.30
2022-12-15T13:20:24.854Z,19.20
2022-12-15T13:22:58.285Z,19.80
2022-12-15T13:25:42.649Z,20.13
2022-12-15T13:28:27.228Z,19.00
2022-12-15T13:31:28.966Z,18.47
2022-12-15T13:34:11.223Z,18.73
2022-12-15T13:36:55.124Z,17.57
2022-12-15T13:39:57.630Z,17.20
2022-12-15T13:42:35.944Z,15.63
2022-12-15T13:45:36.809Z,18.97
2022-12-15T13:48:27.143Z,19.50
2022-12-15T13:51:04.485Z,18.17
2022-12-15T13:53:40.078Z,17.57
2022-12-15T13:56:25.446Z,17.83
2022-12-15T13:59:01.839Z,16.17
2022-12-15T14:01:33.412Z,17.20
2022-12-15T14:04:08.104Z,16.73
2022-12-15T14:06:46.751Z,17.83
2022-12-15T14:09:21.538Z,16.70
2022-12-15T14:11:54.007Z,16.80
2022-12-15T14:14:27.859Z,17.57
2022-12-15T14:17:02.249Z,18.43
2022-12-15T14:19:39.325Z,17.57
2022-12-15T14:25:17.532Z,16.80
2022-12-15T14:27:45.984Z,16.97
2022-12-15T14:30:30.534Z,17.20
2022-12-15T14:33:02.951Z,17.07
2022-12-15T14:35:34.848Z,17.70
2022-12-15T14:38:07.604Z,20.47
2022-12-15T14:40:37.316Z,19.37
2022-12-15T14:43:08.413Z,18.37
2022-12-15T14:45:36.803Z,17.77
2022-12-15T14:51:01.604Z,21.13
2022-12-15T14:53:36.327Z,22.83
2022-12-15T14:56:30.307Z,19.87
2022-12-15T14:59:03.959Z,20.37
2022-12-15T15:01:37.075Z,22.67
2022-12-15T15:03:04.592Z,20.23
2022-12-15T15:04:22.948Z,21.77
2022-12-15T15:06:56.367Z,22.43
2022-12-15T15:09:28.792Z,21.80
2022-12-15T15:12:01.519Z,21.60
2022-12-15T15:14:33.875Z,21.70
2022-12-15T15:17:09.632Z,21.43
2022-12-15T15:19:40.201Z,20.57
2022-12-15T15:22:39.707Z,21.73
2022-12-15T15:25:31.611Z,21.87
2022-12-15T15:28:15.626Z,21.07
2022-12-15T15:30:48.330Z,22.20
2022-12-15T15:33:17.740Z,21.60
2022-12-15T15:35:48.834Z,19.97
2022-12-15T15:38:24.510Z,18.70
2022-12-15T15:40:56.254Z,18.57
2022-12-15T15:43:25.465Z,19.67
2022-12-15T15:46:00.299Z,19.60
2022-12-15T15:48:33.114Z,19.63
2022-12-15T15:51:02.428Z,20.40
2022-12-15T15:53:32.984Z,20.30
2022-12-15T15:56:06.536Z,23.17
2022-12-15T15:58:35.556Z,23.27
2022-12-15T16:01:09.600Z,21.60
2022-12-15T16:03:41.970Z,21.67
2022-12-15T16:06:17.277Z,23.37
2022-12-15T16:08:46.563Z,24.77
2022-12-15T16:11:16.361Z,22.63
2022-12-15T16:13:44.846Z,23.47
2022-12-15T16:16:19.761Z,25.80
2022-12-15T16:18:48.200Z,24.23
2022-12-15T16:21:17.955Z,25.03
2022-12-15T16:23:49.499Z,23.63
2022-12-15T16:26:24.175Z,25.17
2022-12-15T16:28:52.665Z,25.63
2022-12-15T16:31:34.220Z,25.03
2022-12-15T16:34:07.419Z,24.67
2022-12-15T16:36:36.324Z,25.60
2022-12-15T16:39:04.954Z,24.63
2022-12-15T16:41:34.690Z,23.67
2022-12-15T16:44:05.838Z,24.37
2022-12-15T16:46:34.271Z,22.80
2022-12-15T16:49:02.779Z,23.97
2022-12-15T16:51:38.822Z,22.90
2022-12-15T16:54:13.967Z,23.03
2022-12-15T16:56:43.749Z,21.93
2022-12-15T16:59:32.965Z,24.07
2022-12-15T17:02:01.918Z,21.60
2022-12-15T17:07:19.708Z,21.37
2022-12-15T17:09:53.964Z,22.93
2022-12-15T17:12:23.879Z,21.80
2022-12-15T17:14:52.210Z,22.63
2022-12-15T17:17:21.380Z,22.93
2022-12-15T17:20:27.540Z,22.53
2022-12-15T17:22:39.197Z,27.17
2022-12-15T17:25:13.900Z,25.30
2022-12-15T17:27:44.012Z,25.33
2022-12-15T17:30:15.770Z,24.87
2022-12-15T17:32:44.550Z,24.40
2022-12-15T17:35:13.902Z,24.90
2022-12-15T17:37:42.640Z,26.10
2022-12-15T17:40:22.322Z,24.73
2022-12-15T17:42:52.047Z,24.83
2022-12-15T17:45:23.337Z,26.70
2022-12-15T17:47:52.862Z,23.53
2022-12-15T17:50:21.081Z,23.93
2022-12-15T17:52:50.091Z,24.13
2022-12-15T17:55:24.111Z,24.40
2022-12-15T17:57:55.522Z,24.13
2022-12-15T18:00:26.847Z,22.87
2022-12-15T18:02:56.745Z,23.40
2022-12-15T18:05:27.937Z,23.80
2022-12-15T18:07:58.081Z,21.97
2022-12-15T18:10:30.266Z,23.57
2022-12-15T18:13:00.514Z,23.37
2022-12-15T18:15:31.161Z,24.40
2022-12-15T18:18:01.176Z,23.67
2022-12-15T18:20:29.369Z,23.03
2022-12-15T18:22:57.562Z,26.73
2022-12-15T18:25:27.366Z,25.17
2022-12-15T18:27:58.416Z,27.50
2022-12-15T18:30:28.927Z,28.17
2022-12-15T18:32:59.543Z,24.87
2022-12-15T18:35:33.931Z,25.70
2022-12-15T18:38:17.276Z,25.70
2022-12-15T18:40:47.047Z,26.63
2022-12-15T18:43:17.421Z,25.43
2022-12-15T18:45:48.178Z,25.47
2022-12-15T18:48:18.766Z,27.03
2022-12-15T18:50:47.913Z,25.37
2022-12-15T18:53:19.907Z,25.20
2022-12-15T18:55:49.030Z,24.73
2022-12-15T18:58:24.580Z,26.23
2022-12-15T19:01:03.348Z,24.80
2022-12-15T19:03:32.457Z,22.13
2022-12-15T19:06:03.171Z,22.77
2022-12-15T19:08:36.121Z,21.07
2022-12-15T19:11:07.842Z,21.57
2022-12-15T19:13:38.160Z,20.87
2022-12-15T19:16:13.960Z,20.67
2022-12-15T19:18:59.679Z,22.43
2022-12-15T19:21:49.860Z,23.43
2022-12-15T19:24:43.376Z,23.80
2022-12-15T19:27:12.915Z,24.40
2022-12-15T19:29:41.880Z,25.80
2022-12-15T19:32:11.675Z,26.03
2022-12-15T19:34:40.282Z,26.60
2022-12-15T19:37:13.336Z,26.43
2022-12-15T19:39:42.946Z,26.60
2022-12-15T19:42:19.243Z,27.83
2022-12-15T19:44:47.496Z,26.60
2022-12-15T19:47:17.099Z,29.20
2022-12-15T19:49:45.375Z,28.67
2022-12-15T19:52:15.648Z,29.27
2022-12-15T19:54:46.459Z,30.40
2022-12-15T19:57:16.453Z,28.20
2022-12-15T19:59:45.315Z,28.77
2022-12-15T20:02:18.864Z,29.10
2022-12-15T20:04:47.946Z,27.43
2022-12-15T20:07:20.149Z,28.90
2022-12-15T20:09:48.409Z,27.37
2022-12-15T20:12:18.805Z,25.77
2022-12-15T20:14:47.245Z,26.67
2022-12-15T20:17:15.810Z,25.23
2022-12-15T20:19:45.581Z,25.63
2022-12-15T20:22:18.018Z,26.53
2022-12-15T20:24:47.980Z,26.27
2022-12-15T20:27:18.438Z,26.87
2022-12-15T20:29:46.828Z,27.50
2022-12-15T20:32:18.587Z,28.53
2022-12-15T20:34:51.254Z,27.63
2022-12-15T20:37:21.800Z,26.77
2022-12-15T20:39:55.511Z,24.73
2022-12-15T20:42:26.710Z,26.27
2022-12-15T20:44:55.085Z,25.63
2022-12-15T20:47:25.736Z,25.80
2022-12-15T20:49:56.497Z,26.60
2022-12-15T20:52:27.797Z,25.00
2022-12-15T20:54:56.485Z,26.00
2022-12-15T20:57:24.703Z,26.43
2022-12-15T20:59:55.269Z,26.60
2022-12-15T21:02:25.486Z,25.00
2022-12-15T21:04:55.655Z,26.90
2022-12-15T21:07:23.911Z,28.37
2022-12-15T21:09:54.186Z,27.17
2022-12-15T21:12:26.490Z,26.63
2022-12-15T21:14:55.476Z,27.37
2022-12-15T21:17:25.673Z,28.10
2022-12-15T21:19:55.260Z,27.20
2022-12-15T21:22:26.235Z,27.77
2022-12-15T21:24:56.301Z,26.83
2022-12-15T21:27:24.548Z,24.03
2022-12-15T21:29:53.223Z,23.93
2022-12-15T21:32:21.589Z,25.07
2022-12-15T21:34:51.738Z,23.43
2022-12-15T21:37:27.841Z,23.87
2022-12-15T21:39:56.752Z,22.73
2022-12-15T21:42:25.447Z,23.43
2022-12-15T21:44:53.726Z,24.40
2022-12-15T21:47:47.056Z,26.27
2022-12-15T21:50:14.467Z,24.20
2022-12-15T21:52:45.038Z,24.60
2022-12-15T21:55:16.486Z,24.13
2022-12-15T21:57:44.878Z,26.80
2022-12-15T22:00:15.081Z,25.80
2022-12-15T22:02:43.344Z,24.10
2022-12-15T22:05:18.386Z,24.90
2022-12-15T22:07:48.173Z,24.53
2022-12-15T22:10:17.184Z,27.53
2022-12-15T22:15:56.620Z,25.27
2022-12-15T22:18:25.101Z,25.87
2022-12-15T22:20:53.366Z,27.30
2022-12-15T22:23:23.034Z,25.60
2022-12-15T22:25:56.072Z,25.77
2022-12-15T22:28:27.806Z,27.23
2022-12-15T22:30:57.806Z,25.63
2022-12-15T22:33:28.853Z,29.40
2022-12-15T22:35:57.870Z,28.60
2022-12-15T22:38:27.663Z,29.33
2022-12-15T22:40:58.596Z,28.43
2022-12-15T22:43:35.538Z,26.27
2022-12-15T22:46:05.347Z,26.80
2022-12-15T22:48:37.405Z,26.47
2022-12-15T22:51:07.860Z,27.30
2022-12-15T22:53:38.076Z,26.50
2022-12-15T22:56:13.296Z,26.37
2022-12-15T22:58:46.282Z,26.13
2022-12-15T23:01:14.921Z,26.23
2022-12-15T23:03:43.234Z,25.20
2022-12-15T23:06:12.531Z,26.30
2022-12-15T23:11:35.314Z,25.73
2022-12-15T23:14:05.026Z,25.07
2022-12-15T23:16:32.953Z,26.57
2022-12-15T23:19:01.623Z,26.73
2022-12-15T23:21:30.740Z,26.33
2022-12-15T23:24:01.055Z,25.60
2022-12-15T23:26:30.644Z,26.87
2022-12-15T23:29:00.205Z,27.97
2022-12-15T23:31:29.000Z,32.57
2022-12-15T23:33:57.458Z,28.90
2022-12-15T23:36:28.242Z,28.70
2022-12-15T23:38:58.607Z,27.20
2022-12-15T23:41:29.199Z,26.30
2022-12-15T23:43:58.959Z,25.00
2022-12-15T23:46:27.320Z,25.93
2022-12-15T23:48:59.653Z,27.20
2022-12-15T23:51:27.938Z,27.20
2022-12-15T23:53:56.286Z,25.30
2022-12-15T23:56:25.555Z,24.93
2022-12-15T23:58:57.455Z,26.97
